首页
METAR-TAF:

METAR-TAF

机场 :

阿尔达比勒, 伊朗

纬度: 38-19-35N, 经度: 048-25-28E, 海拔: 1315米

当前天气观测

该预报发布于5小时和52分钟前的11:00 UTC
风速14节,风向西南
温度 15°C
湿度 41%
气压 1008 hPa
能见度10公里或以上
散云层高于3000英尺
多云层高于5000英尺, 积雨云.

METAR: OITL 021100Z 23014KT 9999 SCT030 BKN050CB 15/02 Q1008 RESH

时间: 21:22 (16:52 UTC)


TAF: 丢失

超过4000个机场的气象观测和天气预报(METAR&TAF报告)。

可查询的气象台以黄色和红色小点在地图上表示。

将鼠标移到小点上方,可查看气象台名称。

然后点击查看天气观测和预报。

如需切换地图:点击带黑十字的绿色按钮放大地图;点击带横线的绿色按钮缩小地图;或者点击绿色箭头查看邻近地区的地图。


METAR-TAF: